Nelsonville, Wisconsin
Current Conditions -  °F | °C
As of 8:15 PM on Sunday 25 Jan 2015 (Local Time) from KSTE Reporting Station
Overcast Overcast  
Wind Chill: 14°   Ceiling: 11000
Heat Index: 14°   Visibility: 10mi
Dew Point:   Wind: 0mph
Humidity: 71%   Direction: NA
Pressure: 30.08"   Gusts: NA
Location:  44.49°N, 89.31°W
Report Text: KSTE 260215Z AUTO 00000KT 10SM OVC110 M10/M14 A3008 RMK AO2 T11011145
Loading
Personal Weather Stations






























Interactive Weather Map New forecast layout! Learn more

10-Day Weather Forecast

Advertisements
Track Severe Weather on mobile